sensor_id;sensor_type;location;lat;lon;timestamp;P1;durP1;ratioP1;P2;durP2;ratioP2
54881;SDS011;40775;51.448;4.742;2022-09-16T00:00:57;0.65;;;0.35;;
54881;SDS011;40775;51.448;4.742;2022-09-16T00:03:25;0.70;;;0.30;;
54881;SDS011;40775;51.448;4.742;2022-09-16T00:05:52;0.75;;;0.30;;
54881;SDS011;40775;51.448;4.742;2022-09-16T00:08:19;0.63;;;0.40;;
54881;SDS011;40775;51.448;4.742;2022-09-16T00:10:48;0.40;;;0.22;;
54881;SDS011;40775;51.448;4.742;2022-09-16T00:13:15;1.00;;;0.40;;
54881;SDS011;40775;51.448;4.742;2022-09-16T00:15:44;1.10;;;0.40;;
54881;SDS011;40775;51.448;4.742;2022-09-16T00:18:14;0.73;;;0.30;;
54881;SDS011;40775;51.448;4.742;2022-09-16T00:20:42;1.55;;;0.40;;
54881;SDS011;40775;51.448;4.742;2022-09-16T00:23:17;0.90;;;0.30;;
54881;SDS011;40775;51.448;4.742;2022-09-16T00:25:51;0.88;;;0.30;;
54881;SDS011;40775;51.448;4.742;2022-09-16T00:28:20;0.90;;;0.40;;
54881;SDS011;40775;51.448;4.742;2022-09-16T00:30:48;0.68;;;0.30;;
54881;SDS011;40775;51.448;4.742;2022-09-16T00:33:16;1.10;;;0.40;;
54881;SDS011;40775;51.448;4.742;2022-09-16T00:35:44;0.95;;;0.38;;
54881;SDS011;40775;51.448;4.742;2022-09-16T00:38:12;1.23;;;0.40;;
54881;SDS011;40775;51.448;4.742;2022-09-16T00:40:46;0.93;;;0.40;;
54881;SDS011;40775;51.448;4.742;2022-09-16T00:43:15;0.82;;;0.40;;
54881;SDS011;40775;51.448;4.742;2022-09-16T00:45:45;0.73;;;0.30;;
54881;SDS011;40775;51.448;4.742;2022-09-16T00:48:21;3.22;;;0.40;;
54881;SDS011;40775;51.448;4.742;2022-09-16T00:50:53;0.88;;;0.30;;
54881;SDS011;40775;51.448;4.742;2022-09-16T00:53:27;1.17;;;0.40;;
54881;SDS011;40775;51.448;4.742;2022-09-16T00:56:22;0.93;;;0.40;;
54881;SDS011;40775;51.448;4.742;2022-09-16T00:59:07;0.73;;;0.30;;
54881;SDS011;40775;51.448;4.742;2022-09-16T01:01:44;1.20;;;0.30;;
54881;SDS011;40775;51.448;4.742;2022-09-16T01:04:14;0.70;;;0.30;;
54881;SDS011;40775;51.448;4.742;2022-09-16T01:06:50;0.90;;;0.20;;
54881;SDS011;40775;51.448;4.742;2022-09-16T01:09:18;1.70;;;0.30;;
54881;SDS011;40775;51.448;4.742;2022-09-16T01:11:48;0.50;;;0.20;;
54881;SDS011;40775;51.448;4.742;2022-09-16T01:14:15;0.70;;;0.30;;
54881;SDS011;40775;51.448;4.742;2022-09-16T01:17:14;1.10;;;0.30;;
54881;SDS011;40775;51.448;4.742;2022-09-16T01:20:02;0.73;;;0.30;;
54881;SDS011;40775;51.448;4.742;2022-09-16T01:35:23;0.80;;;0.38;;
54881;SDS011;40775;51.448;4.742;2022-09-16T01:38:09;0.47;;;0.20;;
54881;SDS011;40775;51.448;4.742;2022-09-16T01:43:29;0.90;;;0.40;;
54881;SDS011;40775;51.448;4.742;2022-09-16T01:46:09;0.65;;;0.30;;
54881;SDS011;40775;51.448;4.742;2022-09-16T01:57:03;1.08;;;0.40;;
54881;SDS011;40775;51.448;4.742;2022-09-16T01:59:37;1.13;;;0.30;;
54881;SDS011;40775;51.448;4.742;2022-09-16T02:04:57;1.55;;;0.40;;
54881;SDS011;40775;51.448;4.742;2022-09-16T02:07:30;0.45;;;0.25;;
54881;SDS011;40775;51.448;4.742;2022-09-16T02:10:07;0.98;;;0.32;;
54881;SDS011;40775;51.448;4.742;2022-09-16T02:12:45;1.00;;;0.40;;
54881;SDS011;40775;51.448;4.742;2022-09-16T02:15:19;1.63;;;0.47;;
54881;SDS011;40775;51.448;4.742;2022-09-16T02:17:51;1.03;;;0.23;;
54881;SDS011;40775;51.448;4.742;2022-09-16T02:20:28;0.40;;;0.20;;
54881;SDS011;40775;51.448;4.742;2022-09-16T02:22:59;2.15;;;0.47;;
54881;SDS011;40775;51.448;4.742;2022-09-16T02:25:37;0.60;;;0.30;;
54881;SDS011;40775;51.448;4.742;2022-09-16T02:28:10;0.30;;;0.10;;
54881;SDS011;40775;51.448;4.742;2022-09-16T02:30:43;0.88;;;0.30;;
54881;SDS011;40775;51.448;4.742;2022-09-16T02:33:15;0.85;;;0.40;;
54881;SDS011;40775;51.448;4.742;2022-09-16T02:35:46;1.35;;;0.30;;
54881;SDS011;40775;51.448;4.742;2022-09-16T02:38:25;0.73;;;0.22;;
54881;SDS011;40775;51.448;4.742;2022-09-16T02:40:59;1.48;;;0.55;;
54881;SDS011;40775;51.448;4.742;2022-09-16T02:43:28;0.77;;;0.30;;
54881;SDS011;40775;51.448;4.742;2022-09-16T02:46:01;1.30;;;0.32;;
54881;SDS011;40775;51.448;4.742;2022-09-16T02:54:12;0.90;;;0.30;;
54881;SDS011;40775;51.448;4.742;2022-09-16T02:57:01;0.80;;;0.30;;
54881;SDS011;40775;51.448;4.742;2022-09-16T02:59:30;0.40;;;0.13;;
54881;SDS011;40775;51.448;4.742;2022-09-16T03:01:59;1.23;;;0.17;;
54881;SDS011;40775;51.448;4.742;2022-09-16T03:04:28;0.40;;;0.10;;
54881;SDS011;40775;51.448;4.742;2022-09-16T03:06:56;0.38;;;0.13;;
54881;SDS011;40775;51.448;4.742;2022-09-16T03:09:24;0.95;;;0.20;;
54881;SDS011;40775;51.448;4.742;2022-09-16T03:25:56;0.80;;;0.20;;
54881;SDS011;40775;51.448;4.742;2022-09-16T03:37:20;0.75;;;0.22;;
54881;SDS011;40775;51.448;4.742;2022-09-16T03:39:55;0.97;;;0.20;;
54881;SDS011;40775;51.448;4.742;2022-09-16T03:42:25;0.40;;;0.15;;
54881;SDS011;40775;51.448;4.742;2022-09-16T03:44:54;0.70;;;0.30;;
54881;SDS011;40775;51.448;4.742;2022-09-16T03:47:22;1.05;;;0.20;;
54881;SDS011;40775;51.448;4.742;2022-09-16T03:49:50;0.70;;;0.22;;
54881;SDS011;40775;51.448;4.742;2022-09-16T03:52:19;0.55;;;0.20;;
54881;SDS011;40775;51.448;4.742;2022-09-16T03:54:49;0.43;;;0.20;;
54881;SDS011;40775;51.448;4.742;2022-09-16T03:57:17;1.30;;;0.25;;
54881;SDS011;40775;51.448;4.742;2022-09-16T03:59:46;0.60;;;0.20;;
54881;SDS011;40775;51.448;4.742;2022-09-16T04:02:13;0.50;;;0.10;;
54881;SDS011;40775;51.448;4.742;2022-09-16T04:04:41;3.72;;;0.30;;
54881;SDS011;40775;51.448;4.742;2022-09-16T04:07:10;0.30;;;0.10;;
54881;SDS011;40775;51.448;4.742;2022-09-16T04:09:38;0.10;;;0.10;;
54881;SDS011;40775;51.448;4.742;2022-09-16T04:12:05;1.38;;;0.20;;
54881;SDS011;40775;51.448;4.742;2022-09-16T04:14:33;2.38;;;0.30;;
54881;SDS011;40775;51.448;4.742;2022-09-16T04:17:01;1.95;;;0.20;;
54881;SDS011;40775;51.448;4.742;2022-09-16T04:19:30;0.95;;;0.30;;
54881;SDS011;40775;51.448;4.742;2022-09-16T04:21:58;3.40;;;0.20;;
54881;SDS011;40775;51.448;4.742;2022-09-16T04:24:26;2.20;;;0.20;;
54881;SDS011;40775;51.448;4.742;2022-09-16T04:26:54;1.13;;;0.30;;
54881;SDS011;40775;51.448;4.742;2022-09-16T04:29:23;0.80;;;0.20;;
54881;SDS011;40775;51.448;4.742;2022-09-16T04:31:53;1.65;;;0.20;;
54881;SDS011;40775;51.448;4.742;2022-09-16T04:34:21;1.23;;;0.20;;
54881;SDS011;40775;51.448;4.742;2022-09-16T04:36:49;0.68;;;0.20;;
54881;SDS011;40775;51.448;4.742;2022-09-16T04:39:17;1.25;;;0.30;;
54881;SDS011;40775;51.448;4.742;2022-09-16T04:41:45;1.20;;;0.20;;
54881;SDS011;40775;51.448;4.742;2022-09-16T04:44:13;1.70;;;0.30;;
54881;SDS011;40775;51.448;4.742;2022-09-16T04:46:42;1.88;;;0.20;;
54881;SDS011;40775;51.448;4.742;2022-09-16T04:49:09;1.05;;;0.17;;
54881;SDS011;40775;51.448;4.742;2022-09-16T04:51:38;1.40;;;0.30;;
54881;SDS011;40775;51.448;4.742;2022-09-16T04:54:06;1.10;;;0.20;;
54881;SDS011;40775;51.448;4.742;2022-09-16T04:56:34;1.17;;;0.20;;
54881;SDS011;40775;51.448;4.742;2022-09-16T04:59:03;3.28;;;0.40;;
54881;SDS011;40775;51.448;4.742;2022-09-16T05:01:33;1.90;;;0.30;;
54881;SDS011;40775;51.448;4.742;2022-09-16T05:04:04;0.73;;;0.20;;
54881;SDS011;40775;51.448;4.742;2022-09-16T05:06:34;0.90;;;0.20;;
54881;SDS011;40775;51.448;4.742;2022-09-16T05:09:06;0.50;;;0.20;;
54881;SDS011;40775;51.448;4.742;2022-09-16T05:11:37;0.90;;;0.20;;
54881;SDS011;40775;51.448;4.742;2022-09-16T05:14:07;0.22;;;0.10;;
54881;SDS011;40775;51.448;4.742;2022-09-16T05:16:38;0.52;;;0.20;;
54881;SDS011;40775;51.448;4.742;2022-09-16T05:19:06;0.50;;;0.20;;
54881;SDS011;40775;51.448;4.742;2022-09-16T05:21:38;0.30;;;0.20;;
54881;SDS011;40775;51.448;4.742;2022-09-16T05:24:07;0.25;;;0.20;;
54881;SDS011;40775;51.448;4.742;2022-09-16T05:26:38;1.10;;;0.20;;
54881;SDS011;40775;51.448;4.742;2022-09-16T05:29:09;0.43;;;0.10;;
54881;SDS011;40775;51.448;4.742;2022-09-16T05:31:40;0.70;;;0.20;;
54881;SDS011;40775;51.448;4.742;2022-09-16T05:34:13;0.98;;;0.20;;
54881;SDS011;40775;51.448;4.742;2022-09-16T05:36:50;0.77;;;0.17;;
54881;SDS011;40775;51.448;4.742;2022-09-16T05:39:21;1.60;;;0.20;;
54881;SDS011;40775;51.448;4.742;2022-09-16T05:41:54;0.10;;;0.03;;
54881;SDS011;40775;51.448;4.742;2022-09-16T05:44:24;0.22;;;0.10;;
54881;SDS011;40775;51.448;4.742;2022-09-16T05:46:53;0.40;;;0.10;;
54881;SDS011;40775;51.448;4.742;2022-09-16T05:49:22;0.65;;;0.00;;
54881;SDS011;40775;51.448;4.742;2022-09-16T05:51:51;0.00;;;0.00;;
54881;SDS011;40775;51.448;4.742;2022-09-16T05:54:19;0.40;;;0.10;;
54881;SDS011;40775;51.448;4.742;2022-09-16T05:56:50;0.05;;;0.03;;
54881;SDS011;40775;51.448;4.742;2022-09-16T05:59:19;0.30;;;0.00;;
54881;SDS011;40775;51.448;4.742;2022-09-16T06:01:49;0.60;;;0.10;;
54881;SDS011;40775;51.448;4.742;2022-09-16T06:04:17;0.20;;;0.10;;
54881;SDS011;40775;51.448;4.742;2022-09-16T06:06:45;0.00;;;0.00;;
54881;SDS011;40775;51.448;4.742;2022-09-16T06:09:18;0.80;;;0.20;;
54881;SDS011;40775;51.448;4.742;2022-09-16T06:11:48;0.40;;;0.00;;
54881;SDS011;40775;51.448;4.742;2022-09-16T06:14:26;0.20;;;0.10;;
54881;SDS011;40775;51.448;4.742;2022-09-16T06:16:54;0.08;;;0.00;;
54881;SDS011;40775;51.448;4.742;2022-09-16T06:19:22;0.30;;;0.00;;
54881;SDS011;40775;51.448;4.742;2022-09-16T06:21:50;0.00;;;0.00;;
54881;SDS011;40775;51.448;4.742;2022-09-16T06:24:19;0.00;;;0.00;;
54881;SDS011;40775;51.448;4.742;2022-09-16T06:26:47;0.40;;;0.10;;
54881;SDS011;40775;51.448;4.742;2022-09-16T06:29:15;0.25;;;0.00;;
54881;SDS011;40775;51.448;4.742;2022-09-16T06:31:44;0.00;;;0.00;;
54881;SDS011;40775;51.448;4.742;2022-09-16T06:34:13;0.30;;;0.10;;
54881;SDS011;40775;51.448;4.742;2022-09-16T06:36:42;0.10;;;0.00;;
54881;SDS011;40775;51.448;4.742;2022-09-16T06:39:11;0.68;;;0.10;;
54881;SDS011;40775;51.448;4.742;2022-09-16T06:41:40;0.63;;;0.10;;
54881;SDS011;40775;51.448;4.742;2022-09-16T06:44:09;0.00;;;0.00;;
54881;SDS011;40775;51.448;4.742;2022-09-16T06:46:37;0.00;;;0.00;;
54881;SDS011;40775;51.448;4.742;2022-09-16T06:49:05;0.00;;;0.00;;
54881;SDS011;40775;51.448;4.742;2022-09-16T06:51:36;0.00;;;0.00;;
54881;SDS011;40775;51.448;4.742;2022-09-16T06:54:05;0.00;;;0.00;;
54881;SDS011;40775;51.448;4.742;2022-09-16T06:56:35;0.30;;;0.10;;
54881;SDS011;40775;51.448;4.742;2022-09-16T06:59:04;0.20;;;0.00;;
54881;SDS011;40775;51.448;4.742;2022-09-16T07:01:32;0.13;;;0.00;;
54881;SDS011;40775;51.448;4.742;2022-09-16T07:04:03;0.15;;;0.10;;
54881;SDS011;40775;51.448;4.742;2022-09-16T07:06:35;0.05;;;0.00;;
54881;SDS011;40775;51.448;4.742;2022-09-16T07:09:24;0.00;;;0.00;;
54881;SDS011;40775;51.448;4.742;2022-09-16T07:11:52;0.00;;;0.00;;
54881;SDS011;40775;51.448;4.742;2022-09-16T07:14:21;0.50;;;0.10;;
54881;SDS011;40775;51.448;4.742;2022-09-16T07:16:50;0.10;;;0.00;;
54881;SDS011;40775;51.448;4.742;2022-09-16T07:19:17;0.28;;;0.08;;
54881;SDS011;40775;51.448;4.742;2022-09-16T07:21:45;0.00;;;0.00;;
54881;SDS011;40775;51.448;4.742;2022-09-16T07:24:13;0.30;;;0.10;;
54881;SDS011;40775;51.448;4.742;2022-09-16T07:26:42;0.10;;;0.10;;
54881;SDS011;40775;51.448;4.742;2022-09-16T07:29:14;0.25;;;0.10;;
54881;SDS011;40775;51.448;4.742;2022-09-16T07:31:43;0.20;;;0.10;;
54881;SDS011;40775;51.448;4.742;2022-09-16T07:34:12;0.25;;;0.05;;
54881;SDS011;40775;51.448;4.742;2022-09-16T07:36:44;0.40;;;0.10;;
54881;SDS011;40775;51.448;4.742;2022-09-16T07:39:14;0.57;;;0.10;;
54881;SDS011;40775;51.448;4.742;2022-09-16T07:41:44;0.00;;;0.00;;
54881;SDS011;40775;51.448;4.742;2022-09-16T07:44:14;0.28;;;0.08;;
54881;SDS011;40775;51.448;4.742;2022-09-16T07:46:44;1.00;;;0.20;;
54881;SDS011;40775;51.448;4.742;2022-09-16T07:49:12;0.00;;;0.00;;
54881;SDS011;40775;51.448;4.742;2022-09-16T07:51:40;0.98;;;0.10;;
54881;SDS011;40775;51.448;4.742;2022-09-16T07:54:10;0.00;;;0.00;;
54881;SDS011;40775;51.448;4.742;2022-09-16T07:56:40;1.00;;;0.10;;
54881;SDS011;40775;51.448;4.742;2022-09-16T07:59:14;2.85;;;0.20;;
54881;SDS011;40775;51.448;4.742;2022-09-16T08:01:45;1.70;;;0.17;;
54881;SDS011;40775;51.448;4.742;2022-09-16T08:04:14;1.10;;;0.17;;
54881;SDS011;40775;51.448;4.742;2022-09-16T08:06:43;0.70;;;0.30;;
54881;SDS011;40775;51.448;4.742;2022-09-16T08:09:12;0.47;;;0.20;;
54881;SDS011;40775;51.448;4.742;2022-09-16T08:12:01;0.30;;;0.20;;
54881;SDS011;40775;51.448;4.742;2022-09-16T08:14:30;0.10;;;0.00;;
54881;SDS011;40775;51.448;4.742;2022-09-16T08:16:59;1.60;;;0.20;;
54881;SDS011;40775;51.448;4.742;2022-09-16T08:19:29;0.37;;;0.13;;
54881;SDS011;40775;51.448;4.742;2022-09-16T08:21:57;1.10;;;0.10;;
54881;SDS011;40775;51.448;4.742;2022-09-16T08:24:26;1.42;;;0.43;;
54881;SDS011;40775;51.448;4.742;2022-09-16T08:26:54;1.20;;;0.32;;
54881;SDS011;40775;51.448;4.742;2022-09-16T08:29:24;0.50;;;0.40;;
54881;SDS011;40775;51.448;4.742;2022-09-16T08:31:52;4.25;;;0.32;;
54881;SDS011;40775;51.448;4.742;2022-09-16T08:34:21;0.47;;;0.20;;
54881;SDS011;40775;51.448;4.742;2022-09-16T08:36:49;0.17;;;0.00;;
54881;SDS011;40775;51.448;4.742;2022-09-16T08:39:16;0.22;;;0.03;;
54881;SDS011;40775;51.448;4.742;2022-09-16T08:42:01;0.60;;;0.00;;
54881;SDS011;40775;51.448;4.742;2022-09-16T08:50:15;0.05;;;0.05;;
54881;SDS011;40775;51.448;4.742;2022-09-16T08:52:47;0.00;;;0.00;;
54881;SDS011;40775;51.448;4.742;2022-09-16T08:55:20;0.10;;;0.00;;
54881;SDS011;40775;51.448;4.742;2022-09-16T08:57:58;0.20;;;0.10;;
54881;SDS011;40775;51.448;4.742;2022-09-16T09:00:57;0.00;;;0.00;;
54881;SDS011;40775;51.448;4.742;2022-09-16T09:03:32;0.20;;;0.10;;
54881;SDS011;40775;51.448;4.742;2022-09-16T09:06:02;0.30;;;0.10;;
54881;SDS011;40775;51.448;4.742;2022-09-16T09:11:35;0.10;;;0.03;;
54881;SDS011;40775;51.448;4.742;2022-09-16T09:14:39;0.10;;;0.00;;
54881;SDS011;40775;51.448;4.742;2022-09-16T09:30:54;1.40;;;0.10;;
54881;SDS011;40775;51.448;4.742;2022-09-16T09:44:56;0.45;;;0.20;;
54881;SDS011;40775;51.448;4.742;2022-09-16T09:47:32;0.35;;;0.10;;
54881;SDS011;40775;51.448;4.742;2022-09-16T09:50:17;1.60;;;0.30;;
54881;SDS011;40775;51.448;4.742;2022-09-16T09:53:11;0.93;;;0.30;;
54881;SDS011;40775;51.448;4.742;2022-09-16T09:55:44;0.20;;;0.10;;
54881;SDS011;40775;51.448;4.742;2022-09-16T10:00:46;3.97;;;0.70;;
54881;SDS011;40775;51.448;4.742;2022-09-16T10:03:16;2.67;;;0.60;;
54881;SDS011;40775;51.448;4.742;2022-09-16T10:05:45;1.40;;;0.40;;
54881;SDS011;40775;51.448;4.742;2022-09-16T10:10:57;1.38;;;0.20;;
54881;SDS011;40775;51.448;4.742;2022-09-16T10:13:27;1.50;;;0.20;;
54881;SDS011;40775;51.448;4.742;2022-09-16T10:16:11;3.33;;;0.38;;
54881;SDS011;40775;51.448;4.742;2022-09-16T10:18:43;1.13;;;0.38;;
54881;SDS011;40775;51.448;4.742;2022-09-16T10:22:33;1.23;;;0.13;;
54881;SDS011;40775;51.448;4.742;2022-09-16T10:24:37;0.57;;;0.13;;
54881;SDS011;40775;51.448;4.742;2022-09-16T10:27:17;1.35;;;0.10;;
54881;SDS011;40775;51.448;4.742;2022-09-16T10:32:55;1.70;;;0.10;;
54881;SDS011;40775;51.448;4.742;2022-09-16T10:35:31;1.00;;;0.10;;
54881;SDS011;40775;51.448;4.742;2022-09-16T10:38:03;1.10;;;0.10;;
54881;SDS011;40775;51.448;4.742;2022-09-16T10:40:50;0.15;;;0.10;;
54881;SDS011;40775;51.448;4.742;2022-09-16T10:43:20;1.35;;;0.32;;
54881;SDS011;40775;51.448;4.742;2022-09-16T10:45:51;0.70;;;0.27;;
54881;SDS011;40775;51.448;4.742;2022-09-16T10:48:25;1.65;;;0.28;;
54881;SDS011;40775;51.448;4.742;2022-09-16T10:50:57;0.30;;;0.17;;
54881;SDS011;40775;51.448;4.742;2022-09-16T10:53:33;1.88;;;0.30;;
54881;SDS011;40775;51.448;4.742;2022-09-16T10:56:16;1.63;;;0.50;;
54881;SDS011;40775;51.448;4.742;2022-09-16T10:58:47;1.48;;;0.40;;
54881;SDS011;40775;51.448;4.742;2022-09-16T11:36:05;2.40;;;0.50;;
54881;SDS011;40775;51.448;4.742;2022-09-16T11:41:31;1.55;;;0.40;;
54881;SDS011;40775;51.448;4.742;2022-09-16T11:57:37;3.72;;;0.65;;
54881;SDS011;40775;51.448;4.742;2022-09-16T12:00:10;2.80;;;0.50;;
54881;SDS011;40775;51.448;4.742;2022-09-16T12:02:51;0.73;;;0.37;;
54881;SDS011;40775;51.448;4.742;2022-09-16T12:11:17;1.27;;;0.30;;
54881;SDS011;40775;51.448;4.742;2022-09-16T12:16:49;1.15;;;0.47;;
54881;SDS011;40775;51.448;4.742;2022-09-16T12:19:34;0.85;;;0.30;;
54881;SDS011;40775;51.448;4.742;2022-09-16T12:22:57;0.80;;;0.28;;
54881;SDS011;40775;51.448;4.742;2022-09-16T12:25:18;0.30;;;0.10;;
54881;SDS011;40775;51.448;4.742;2022-09-16T12:30:40;0.70;;;0.20;;
54881;SDS011;40775;51.448;4.742;2022-09-16T12:33:17;0.63;;;0.17;;
54881;SDS011;40775;51.448;4.742;2022-09-16T12:35:55;0.70;;;0.40;;
54881;SDS011;40775;51.448;4.742;2022-09-16T12:38:37;0.20;;;0.15;;
54881;SDS011;40775;51.448;4.742;2022-09-16T12:58:02;0.38;;;0.10;;
54881;SDS011;40775;51.448;4.742;2022-09-16T13:03:48;0.73;;;0.28;;
54881;SDS011;40775;51.448;4.742;2022-09-16T13:06:29;1.05;;;0.30;;
54881;SDS011;40775;51.448;4.742;2022-09-16T13:11:40;0.43;;;0.00;;
54881;SDS011;40775;51.448;4.742;2022-09-16T13:17:13;1.03;;;0.33;;
54881;SDS011;40775;51.448;4.742;2022-09-16T13:19:50;1.15;;;0.40;;
54881;SDS011;40775;51.448;4.742;2022-09-16T13:22:27;1.02;;;0.30;;
54881;SDS011;40775;51.448;4.742;2022-09-16T13:27:39;2.20;;;0.40;;
54881;SDS011;40775;51.448;4.742;2022-09-16T13:38:51;2.77;;;0.50;;
54881;SDS011;40775;51.448;4.742;2022-09-16T13:47:15;1.92;;;0.38;;
54881;SDS011;40775;51.448;4.742;2022-09-16T13:50:00;1.70;;;0.30;;
54881;SDS011;40775;51.448;4.742;2022-09-16T13:52:36;1.25;;;0.30;;
54881;SDS011;40775;51.448;4.742;2022-09-16T13:55:07;2.28;;;0.40;;
54881;SDS011;40775;51.448;4.742;2022-09-16T14:01:01;1.05;;;0.43;;
54881;SDS011;40775;51.448;4.742;2022-09-16T14:03:55;2.90;;;0.40;;
54881;SDS011;40775;51.448;4.742;2022-09-16T14:06:39;1.60;;;0.38;;
54881;SDS011;40775;51.448;4.742;2022-09-16T14:14:47;2.88;;;0.40;;
54881;SDS011;40775;51.448;4.742;2022-09-16T14:17:28;1.63;;;0.28;;
54881;SDS011;40775;51.448;4.742;2022-09-16T14:20:17;2.22;;;0.35;;
54881;SDS011;40775;51.448;4.742;2022-09-16T14:22:58;0.67;;;0.17;;
54881;SDS011;40775;51.448;4.742;2022-09-16T14:25:40;0.88;;;0.32;;
54881;SDS011;40775;51.448;4.742;2022-09-16T14:28:22;0.60;;;0.25;;
54881;SDS011;40775;51.448;4.742;2022-09-16T14:30:59;2.33;;;0.50;;
54881;SDS011;40775;51.448;4.742;2022-09-16T14:36:13;0.70;;;0.20;;
54881;SDS011;40775;51.448;4.742;2022-09-16T14:41:46;1.75;;;0.28;;
54881;SDS011;40775;51.448;4.742;2022-09-16T14:44:20;2.45;;;0.40;;
54881;SDS011;40775;51.448;4.742;2022-09-16T14:46:58;4.20;;;0.47;;
54881;SDS011;40775;51.448;4.742;2022-09-16T14:49:38;1.13;;;0.33;;
54881;SDS011;40775;51.448;4.742;2022-09-16T14:52:15;1.40;;;0.40;;
54881;SDS011;40775;51.448;4.742;2022-09-16T14:54:48;1.85;;;0.20;;
54881;SDS011;40775;51.448;4.742;2022-09-16T14:57:20;0.53;;;0.20;;
54881;SDS011;40775;51.448;4.742;2022-09-16T14:59:51;1.00;;;0.30;;
54881;SDS011;40775;51.448;4.742;2022-09-16T15:02:28;1.30;;;0.20;;
54881;SDS011;40775;51.448;4.742;2022-09-16T15:08:09;0.85;;;0.30;;
54881;SDS011;40775;51.448;4.742;2022-09-16T15:10:46;0.32;;;0.15;;
54881;SDS011;40775;51.448;4.742;2022-09-16T15:13:19;1.02;;;0.20;;
54881;SDS011;40775;51.448;4.742;2022-09-16T15:15:57;0.82;;;0.20;;
54881;SDS011;40775;51.448;4.742;2022-09-16T15:18:33;0.75;;;0.20;;
54881;SDS011;40775;51.448;4.742;2022-09-16T15:21:24;0.65;;;0.30;;
54881;SDS011;40775;51.448;4.742;2022-09-16T15:23:55;1.23;;;0.30;;
54881;SDS011;40775;51.448;4.742;2022-09-16T15:26:28;0.40;;;0.20;;
54881;SDS011;40775;51.448;4.742;2022-09-16T15:29:01;1.40;;;0.40;;
54881;SDS011;40775;51.448;4.742;2022-09-16T15:31:38;0.70;;;0.20;;
54881;SDS011;40775;51.448;4.742;2022-09-16T15:36:53;0.77;;;0.20;;
54881;SDS011;40775;51.448;4.742;2022-09-16T15:39:29;0.80;;;0.20;;
54881;SDS011;40775;51.448;4.742;2022-09-16T15:42:15;0.38;;;0.20;;
54881;SDS011;40775;51.448;4.742;2022-09-16T15:44:52;0.70;;;0.20;;
54881;SDS011;40775;51.448;4.742;2022-09-16T15:47:33;0.60;;;0.30;;
54881;SDS011;40775;51.448;4.742;2022-09-16T15:52:50;0.70;;;0.30;;
54881;SDS011;40775;51.448;4.742;2022-09-16T15:56:06;0.50;;;0.10;;
54881;SDS011;40775;51.448;4.742;2022-09-16T15:58:48;0.80;;;0.20;;
54881;SDS011;40775;51.448;4.742;2022-09-16T16:03:56;0.82;;;0.20;;
54881;SDS011;40775;51.448;4.742;2022-09-16T16:11:55;1.05;;;0.20;;
54881;SDS011;40775;51.448;4.742;2022-09-16T16:14:24;0.60;;;0.20;;
54881;SDS011;40775;51.448;4.742;2022-09-16T16:17:19;0.90;;;0.30;;
54881;SDS011;40775;51.448;4.742;2022-09-16T16:19:47;0.22;;;0.20;;
54881;SDS011;40775;51.448;4.742;2022-09-16T16:22:15;0.40;;;0.20;;
54881;SDS011;40775;51.448;4.742;2022-09-16T16:24:43;1.48;;;0.30;;
54881;SDS011;40775;51.448;4.742;2022-09-16T16:27:10;1.42;;;0.30;;
54881;SDS011;40775;51.448;4.742;2022-09-16T16:29:37;0.55;;;0.20;;
54881;SDS011;40775;51.448;4.742;2022-09-16T16:34:41;1.43;;;0.37;;
54881;SDS011;40775;51.448;4.742;2022-09-16T16:37:11;1.70;;;0.30;;
54881;SDS011;40775;51.448;4.742;2022-09-16T16:40:00;1.35;;;0.38;;
54881;SDS011;40775;51.448;4.742;2022-09-16T16:42:29;1.10;;;0.27;;
54881;SDS011;40775;51.448;4.742;2022-09-16T16:44:56;1.08;;;0.32;;
54881;SDS011;40775;51.448;4.742;2022-09-16T16:47:23;0.57;;;0.20;;
54881;SDS011;40775;51.448;4.742;2022-09-16T16:49:51;0.97;;;0.30;;
54881;SDS011;40775;51.448;4.742;2022-09-16T16:52:18;1.63;;;0.30;;
54881;SDS011;40775;51.448;4.742;2022-09-16T16:54:46;1.73;;;0.32;;
54881;SDS011;40775;51.448;4.742;2022-09-16T16:57:13;0.20;;;0.10;;
54881;SDS011;40775;51.448;4.742;2022-09-16T16:59:40;2.85;;;0.40;;
54881;SDS011;40775;51.448;4.742;2022-09-16T17:02:07;0.83;;;0.13;;
54881;SDS011;40775;51.448;4.742;2022-09-16T17:04:36;1.10;;;0.30;;
54881;SDS011;40775;51.448;4.742;2022-09-16T17:07:04;1.15;;;0.22;;
54881;SDS011;40775;51.448;4.742;2022-09-16T17:09:51;1.88;;;0.30;;
54881;SDS011;40775;51.448;4.742;2022-09-16T17:12:19;0.40;;;0.20;;
54881;SDS011;40775;51.448;4.742;2022-09-16T17:14:46;1.88;;;0.30;;
54881;SDS011;40775;51.448;4.742;2022-09-16T17:17:13;1.70;;;0.40;;
54881;SDS011;40775;51.448;4.742;2022-09-16T17:19:40;0.80;;;0.28;;
54881;SDS011;40775;51.448;4.742;2022-09-16T17:22:07;1.10;;;0.20;;
54881;SDS011;40775;51.448;4.742;2022-09-16T17:24:34;1.35;;;0.30;;
54881;SDS011;40775;51.448;4.742;2022-09-16T17:27:01;2.70;;;0.40;;
54881;SDS011;40775;51.448;4.742;2022-09-16T17:29:29;2.17;;;0.57;;
54881;SDS011;40775;51.448;4.742;2022-09-16T17:31:56;2.00;;;0.40;;
54881;SDS011;40775;51.448;4.742;2022-09-16T17:34:25;2.90;;;0.47;;
54881;SDS011;40775;51.448;4.742;2022-09-16T17:36:52;1.58;;;0.22;;
54881;SDS011;40775;51.448;4.742;2022-09-16T17:39:20;2.80;;;0.70;;
54881;SDS011;40775;51.448;4.742;2022-09-16T17:41:48;1.85;;;0.50;;
54881;SDS011;40775;51.448;4.742;2022-09-16T17:44:16;3.05;;;0.60;;
54881;SDS011;40775;51.448;4.742;2022-09-16T17:46:44;2.00;;;0.80;;
54881;SDS011;40775;51.448;4.742;2022-09-16T17:49:17;3.10;;;0.67;;
54881;SDS011;40775;51.448;4.742;2022-09-16T17:51:47;4.50;;;0.88;;
54881;SDS011;40775;51.448;4.742;2022-09-16T17:54:15;2.17;;;0.50;;
54881;SDS011;40775;51.448;4.742;2022-09-16T17:56:43;2.45;;;0.63;;
54881;SDS011;40775;51.448;4.742;2022-09-16T17:59:11;2.53;;;0.55;;
54881;SDS011;40775;51.448;4.742;2022-09-16T18:01:41;3.10;;;0.65;;
54881;SDS011;40775;51.448;4.742;2022-09-16T18:04:08;3.20;;;0.70;;
54881;SDS011;40775;51.448;4.742;2022-09-16T18:06:40;2.88;;;0.70;;
54881;SDS011;40775;51.448;4.742;2022-09-16T18:09:10;1.48;;;0.45;;
54881;SDS011;40775;51.448;4.742;2022-09-16T18:11:38;3.17;;;0.55;;
54881;SDS011;40775;51.448;4.742;2022-09-16T18:14:07;1.48;;;0.50;;
54881;SDS011;40775;51.448;4.742;2022-09-16T18:16:37;1.27;;;0.43;;
54881;SDS011;40775;51.448;4.742;2022-09-16T18:19:04;2.30;;;0.50;;
54881;SDS011;40775;51.448;4.742;2022-09-16T18:21:32;2.33;;;0.40;;
54881;SDS011;40775;51.448;4.742;2022-09-16T18:24:00;2.60;;;0.40;;
54881;SDS011;40775;51.448;4.742;2022-09-16T18:26:29;2.95;;;0.40;;
54881;SDS011;40775;51.448;4.742;2022-09-16T18:28:59;2.75;;;0.40;;
54881;SDS011;40775;51.448;4.742;2022-09-16T18:31:37;2.17;;;0.67;;
54881;SDS011;40775;51.448;4.742;2022-09-16T18:34:06;1.95;;;0.50;;
54881;SDS011;40775;51.448;4.742;2022-09-16T18:36:34;2.45;;;0.60;;
54881;SDS011;40775;51.448;4.742;2022-09-16T18:39:03;0.80;;;0.43;;
54881;SDS011;40775;51.448;4.742;2022-09-16T18:41:36;0.85;;;0.25;;
54881;SDS011;40775;51.448;4.742;2022-09-16T18:44:06;1.92;;;0.40;;
54881;SDS011;40775;51.448;4.742;2022-09-16T18:46:40;1.33;;;0.35;;
54881;SDS011;40775;51.448;4.742;2022-09-16T18:49:09;2.13;;;0.32;;
54881;SDS011;40775;51.448;4.742;2022-09-16T18:51:40;1.45;;;0.38;;
54881;SDS011;40775;51.448;4.742;2022-09-16T18:54:17;3.67;;;0.68;;
54881;SDS011;40775;51.448;4.742;2022-09-16T18:56:53;1.95;;;0.70;;
54881;SDS011;40775;51.448;4.742;2022-09-16T18:59:23;2.30;;;0.60;;
54881;SDS011;40775;51.448;4.742;2022-09-16T19:01:57;1.98;;;0.40;;
54881;SDS011;40775;51.448;4.742;2022-09-16T19:04:29;0.93;;;0.32;;
54881;SDS011;40775;51.448;4.742;2022-09-16T19:07:02;2.45;;;0.40;;
54881;SDS011;40775;51.448;4.742;2022-09-16T19:09:34;1.23;;;0.45;;
54881;SDS011;40775;51.448;4.742;2022-09-16T19:12:05;1.25;;;0.43;;
54881;SDS011;40775;51.448;4.742;2022-09-16T19:14:36;1.70;;;0.70;;
54881;SDS011;40775;51.448;4.742;2022-09-16T19:17:04;1.95;;;0.50;;